sensor_id;sensor_type;location;lat;lon;timestamp;P1;durP1;ratioP1;P2;durP2;ratioP2
67429;SDS011;54298;52.076;5.264;2023-02-15T00:00:05;49.2;;;35.31;;
67429;SDS011;54298;52.076;5.264;2023-02-15T00:03:22;49.5;;;35.9;;
67429;SDS011;54298;52.076;5.264;2023-02-15T00:04:58;50.7;;;39.21;;
67429;SDS011;54298;52.076;5.264;2023-02-15T00:06:34;48.6;;;35.1;;
67429;SDS011;54298;52.076;5.264;2023-02-15T00:09:47;50.1;;;35.71;;
67429;SDS011;54298;52.076;5.264;2023-02-15T00:11:39;45.4;;;34.21;;
67429;SDS011;54298;52.076;5.264;2023-02-15T00:13:17;48.9;;;37.4;;
67429;SDS011;54298;52.076;5.264;2023-02-15T00:14:53;47.1;;;32.1;;
67429;SDS011;54298;52.076;5.264;2023-02-15T00:18:08;52.2;;;36.31;;
67429;SDS011;54298;52.076;5.264;2023-02-15T00:19:44;53.3;;;34.5;;
67429;SDS011;54298;52.076;5.264;2023-02-15T00:21:20;53.6;;;34.0;;
67429;SDS011;54298;52.076;5.264;2023-02-15T00:22:56;53.6;;;34.0;;
67429;SDS011;54298;52.076;5.264;2023-02-15T00:26:10;44.6;;;32.5;;
67429;SDS011;54298;52.076;5.264;2023-02-15T00:27:48;44.7;;;29.9;;
67429;SDS011;54298;52.076;5.264;2023-02-15T00:29:25;57.8;;;38.5;;
67429;SDS011;54298;52.076;5.264;2023-02-15T00:32:40;60.1;;;40.9;;
67429;SDS011;54298;52.076;5.264;2023-02-15T00:34:17;45.5;;;30.6;;
67429;SDS011;54298;52.076;5.264;2023-02-15T00:35:56;51.2;;;33.8;;
67429;SDS011;54298;52.076;5.264;2023-02-15T00:37:33;46.8;;;33.4;;
67429;SDS011;54298;52.076;5.264;2023-02-15T00:40:51;46.0;;;33.71;;
67429;SDS011;54298;52.076;5.264;2023-02-15T00:42:28;45.0;;;31.0;;
67429;SDS011;54298;52.076;5.264;2023-02-15T00:44:05;51.3;;;34.0;;
67429;SDS011;54298;52.076;5.264;2023-02-15T00:47:21;45.3;;;32.3;;
67429;SDS011;54298;52.076;5.264;2023-02-15T00:48:57;54.1;;;33.6;;
67429;SDS011;54298;52.076;5.264;2023-02-15T00:50:33;57.7;;;39.9;;
67429;SDS011;54298;52.076;5.264;2023-02-15T00:52:09;54.6;;;37.1;;
67429;SDS011;54298;52.076;5.264;2023-02-15T00:55:22;47.9;;;31.8;;
67429;SDS011;54298;52.076;5.264;2023-02-15T00:56:58;53.9;;;35.31;;
67429;SDS011;54298;52.076;5.264;2023-02-15T00:58:35;56.9;;;36.9;;
67429;SDS011;54298;52.076;5.264;2023-02-15T01:01:49;56.9;;;37.31;;
67429;SDS011;54298;52.076;5.264;2023-02-15T01:03:25;58.6;;;39.1;;
67429;SDS011;54298;52.076;5.264;2023-02-15T01:05:01;61.1;;;39.31;;
67429;SDS011;54298;52.076;5.264;2023-02-15T01:08:13;51.3;;;34.4;;
67429;SDS011;54298;52.076;5.264;2023-02-15T01:09:50;54.7;;;38.0;;
67429;SDS011;54298;52.076;5.264;2023-02-15T01:11:27;54.0;;;36.0;;
67429;SDS011;54298;52.076;5.264;2023-02-15T01:14:40;54.7;;;36.31;;
67429;SDS011;54298;52.076;5.264;2023-02-15T01:16:16;47.1;;;31.8;;
67429;SDS011;54298;52.076;5.264;2023-02-15T01:17:53;47.2;;;32.5;;
67429;SDS011;54298;52.076;5.264;2023-02-15T01:19:29;46.1;;;33.6;;
67429;SDS011;54298;52.076;5.264;2023-02-15T01:22:49;46.1;;;33.6;;
67429;SDS011;54298;52.076;5.264;2023-02-15T01:24:26;47.4;;;31.4;;
67429;SDS011;54298;52.076;5.264;2023-02-15T01:26:02;47.7;;;35.31;;
67429;SDS011;54298;52.076;5.264;2023-02-15T01:29:15;44.3;;;28.9;;
67429;SDS011;54298;52.076;5.264;2023-02-15T01:30:51;45.8;;;32.6;;
67429;SDS011;54298;52.076;5.264;2023-02-15T01:32:28;51.7;;;32.21;;
67429;SDS011;54298;52.076;5.264;2023-02-15T01:34:04;46.8;;;30.6;;
67429;SDS011;54298;52.076;5.264;2023-02-15T01:37:16;49.5;;;34.71;;
67429;SDS011;54298;52.076;5.264;2023-02-15T01:38:52;53.1;;;34.1;;
67429;SDS011;54298;52.076;5.264;2023-02-15T01:40:28;51.3;;;34.1;;
67429;SDS011;54298;52.076;5.264;2023-02-15T01:43:47;58.3;;;37.4;;
67429;SDS011;54298;52.076;5.264;2023-02-15T01:45:25;47.0;;;33.71;;
67429;SDS011;54298;52.076;5.264;2023-02-15T01:47:04;50.2;;;33.9;;
67429;SDS011;54298;52.076;5.264;2023-02-15T01:48:40;46.1;;;34.0;;
67429;SDS011;54298;52.076;5.264;2023-02-15T01:52:05;44.1;;;31.7;;
67429;SDS011;54298;52.076;5.264;2023-02-15T01:53:43;44.5;;;32.4;;
67429;SDS011;54298;52.076;5.264;2023-02-15T01:55:27;46.6;;;31.7;;
67429;SDS011;54298;52.076;5.264;2023-02-15T01:57:09;47.0;;;33.8;;
67429;SDS011;54298;52.076;5.264;2023-02-15T02:00:31;45.3;;;32.4;;
67429;SDS011;54298;52.076;5.264;2023-02-15T02:02:09;49.1;;;35.6;;
67429;SDS011;54298;52.076;5.264;2023-02-15T02:03:51;49.1;;;35.6;;
67429;SDS011;54298;52.076;5.264;2023-02-15T02:05:34;46.5;;;35.31;;
67429;SDS011;54298;52.076;5.264;2023-02-15T02:08:50;48.7;;;35.1;;
67429;SDS011;54298;52.076;5.264;2023-02-15T02:10:28;50.1;;;38.6;;
67429;SDS011;54298;52.076;5.264;2023-02-15T02:12:04;46.7;;;33.8;;
67429;SDS011;54298;52.076;5.264;2023-02-15T02:15:20;47.6;;;34.9;;
67429;SDS011;54298;52.076;5.264;2023-02-15T02:17:06;46.4;;;31.4;;
67429;SDS011;54298;52.076;5.264;2023-02-15T02:18:55;53.8;;;35.31;;
67429;SDS011;54298;52.076;5.264;2023-02-15T02:20:52;52.1;;;35.4;;
67429;SDS011;54298;52.076;5.264;2023-02-15T02:23:16;50.5;;;31.2;;
67429;SDS011;54298;52.076;5.264;2023-02-15T02:25:46;49.6;;;32.3;;
67429;SDS011;54298;52.076;5.264;2023-02-15T02:29:20;51.3;;;38.0;;
67429;SDS011;54298;52.076;5.264;2023-02-15T02:33:55;51.5;;;32.1;;
67429;SDS011;54298;52.076;5.264;2023-02-15T02:35:41;43.7;;;31.3;;
67429;SDS011;54298;52.076;5.264;2023-02-15T02:37:28;44.5;;;33.0;;
67429;SDS011;54298;52.076;5.264;2023-02-15T02:39:13;48.9;;;34.0;;
67429;SDS011;54298;52.076;5.264;2023-02-15T02:41:05;47.9;;;37.0;;
67429;SDS011;54298;52.076;5.264;2023-02-15T02:44:39;47.0;;;30.7;;
67429;SDS011;54298;52.076;5.264;2023-02-15T02:46:20;53.0;;;33.5;;
67429;SDS011;54298;52.076;5.264;2023-02-15T02:48:02;50.3;;;34.0;;
67429;SDS011;54298;52.076;5.264;2023-02-15T02:49:43;56.4;;;35.71;;
67429;SDS011;54298;52.076;5.264;2023-02-15T02:52:58;56.1;;;35.9;;
67429;SDS011;54298;52.076;5.264;2023-02-15T02:54:35;58.4;;;36.81;;
67429;SDS011;54298;52.076;5.264;2023-02-15T02:56:13;56.8;;;37.21;;
67429;SDS011;54298;52.076;5.264;2023-02-15T02:57:59;64.3;;;41.9;;
67429;SDS011;54298;52.076;5.264;2023-02-15T03:01:26;61.9;;;38.6;;
67429;SDS011;54298;52.076;5.264;2023-02-15T03:03:08;49.8;;;32.8;;
67429;SDS011;54298;52.076;5.264;2023-02-15T03:04:59;61.8;;;38.71;;
67429;SDS011;54298;52.076;5.264;2023-02-15T03:06:44;60.0;;;36.0;;
67429;SDS011;54298;52.076;5.264;2023-02-15T03:08:30;59.2;;;35.71;;
67429;SDS011;54298;52.076;5.264;2023-02-15T03:11:49;56.8;;;35.5;;
67429;SDS011;54298;52.076;5.264;2023-02-15T03:13:26;50.6;;;36.0;;
67429;SDS011;54298;52.076;5.264;2023-02-15T03:15:05;58.5;;;37.1;;
67429;SDS011;54298;52.076;5.264;2023-02-15T03:16:46;51.9;;;35.81;;
67429;SDS011;54298;52.076;5.264;2023-02-15T03:20:14;53.5;;;36.71;;
67429;SDS011;54298;52.076;5.264;2023-02-15T03:21:58;60.8;;;36.71;;
67429;SDS011;54298;52.076;5.264;2023-02-15T03:23:45;65.91;;;42.4;;
67429;SDS011;54298;52.076;5.264;2023-02-15T03:25:23;61.0;;;36.21;;
67429;SDS011;54298;52.076;5.264;2023-02-15T03:27:04;66.0;;;41.6;;
67429;SDS011;54298;52.076;5.264;2023-02-15T03:30:25;57.8;;;35.0;;
67429;SDS011;54298;52.076;5.264;2023-02-15T03:32:05;61.3;;;37.9;;
67429;SDS011;54298;52.076;5.264;2023-02-15T03:33:47;46.9;;;29.9;;
67429;SDS011;54298;52.076;5.264;2023-02-15T03:35:31;44.8;;;29.6;;
67429;SDS011;54298;52.076;5.264;2023-02-15T03:39:07;45.7;;;32.5;;
67429;SDS011;54298;52.076;5.264;2023-02-15T03:41:21;45.4;;;33.3;;
67429;SDS011;54298;52.076;5.264;2023-02-15T03:43:04;47.6;;;31.6;;
67429;SDS011;54298;52.076;5.264;2023-02-15T03:44:49;53.0;;;33.4;;
67429;SDS011;54298;52.076;5.264;2023-02-15T03:46:35;53.1;;;33.3;;
67429;SDS011;54298;52.076;5.264;2023-02-15T03:48:18;50.1;;;32.3;;
67429;SDS011;54298;52.076;5.264;2023-02-15T03:51:41;50.1;;;32.3;;
67429;SDS011;54298;52.076;5.264;2023-02-15T03:53:22;66.8;;;41.3;;
67429;SDS011;54298;52.076;5.264;2023-02-15T03:55:01;52.4;;;31.7;;
67429;SDS011;54298;52.076;5.264;2023-02-15T03:56:38;57.6;;;35.4;;
67429;SDS011;54298;52.076;5.264;2023-02-15T04:02:27;64.5;;;41.7;;
67429;SDS011;54298;52.076;5.264;2023-02-15T04:04:13;69.3;;;38.6;;
67429;SDS011;54298;52.076;5.264;2023-02-15T04:05:55;58.1;;;34.9;;
67429;SDS011;54298;52.076;5.264;2023-02-15T04:07:30;47.9;;;31.1;;
67429;SDS011;54298;52.076;5.264;2023-02-15T04:10:56;47.4;;;30.2;;
67429;SDS011;54298;52.076;5.264;2023-02-15T04:12:42;49.7;;;31.6;;
67429;SDS011;54298;52.076;5.264;2023-02-15T04:16:07;59.0;;;35.1;;
67429;SDS011;54298;52.076;5.264;2023-02-15T04:17:43;53.1;;;32.0;;
67429;SDS011;54298;52.076;5.264;2023-02-15T04:25:18;58.8;;;36.1;;
67429;SDS011;54298;52.076;5.264;2023-02-15T04:26:56;50.4;;;34.31;;
67429;SDS011;54298;52.076;5.264;2023-02-15T04:28:33;46.4;;;29.5;;
67429;SDS011;54298;52.076;5.264;2023-02-15T04:30:09;60.0;;;36.0;;
67429;SDS011;54298;52.076;5.264;2023-02-15T04:31:48;58.2;;;35.0;;
67429;SDS011;54298;52.076;5.264;2023-02-15T04:35:01;53.2;;;34.71;;
67429;SDS011;54298;52.076;5.264;2023-02-15T04:36:39;55.9;;;35.4;;
67429;SDS011;54298;52.076;5.264;2023-02-15T04:38:16;55.9;;;35.4;;
67429;SDS011;54298;52.076;5.264;2023-02-15T04:41:29;65.5;;;39.0;;
67429;SDS011;54298;52.076;5.264;2023-02-15T04:43:05;52.6;;;34.21;;
67429;SDS011;54298;52.076;5.264;2023-02-15T04:44:41;53.2;;;36.5;;
67429;SDS011;54298;52.076;5.264;2023-02-15T04:47:55;57.9;;;34.81;;
67429;SDS011;54298;52.076;5.264;2023-02-15T04:49:31;56.1;;;32.6;;
67429;SDS011;54298;52.076;5.264;2023-02-15T04:51:07;60.0;;;35.9;;
67429;SDS011;54298;52.076;5.264;2023-02-15T04:52:43;57.9;;;34.4;;
67429;SDS011;54298;52.076;5.264;2023-02-15T04:55:56;54.4;;;33.1;;
67429;SDS011;54298;52.076;5.264;2023-02-15T04:57:32;59.9;;;34.4;;
67429;SDS011;54298;52.076;5.264;2023-02-15T04:59:09;60.0;;;35.0;;
67429;SDS011;54298;52.076;5.264;2023-02-15T05:02:22;48.9;;;31.9;;
67429;SDS011;54298;52.076;5.264;2023-02-15T05:03:58;44.8;;;28.5;;
67429;SDS011;54298;52.076;5.264;2023-02-15T05:05:34;41.2;;;27.3;;
67429;SDS011;54298;52.076;5.264;2023-02-15T05:08:46;59.0;;;37.0;;
67429;SDS011;54298;52.076;5.264;2023-02-15T05:10:22;52.5;;;34.0;;
67429;SDS011;54298;52.076;5.264;2023-02-15T05:11:59;65.3;;;42.5;;
67429;SDS011;54298;52.076;5.264;2023-02-15T05:15:11;46.4;;;30.3;;
67429;SDS011;54298;52.076;5.264;2023-02-15T05:16:47;55.9;;;34.5;;
67429;SDS011;54298;52.076;5.264;2023-02-15T05:18:23;58.3;;;35.6;;
67429;SDS011;54298;52.076;5.264;2023-02-15T05:19:59;51.5;;;31.2;;
67429;SDS011;54298;52.076;5.264;2023-02-15T05:23:11;54.8;;;32.6;;
67429;SDS011;54298;52.076;5.264;2023-02-15T05:28:58;64.6;;;36.9;;
67429;SDS011;54298;52.076;5.264;2023-02-15T05:30:34;56.9;;;34.71;;
67429;SDS011;54298;52.076;5.264;2023-02-15T05:33:49;54.4;;;33.8;;
67429;SDS011;54298;52.076;5.264;2023-02-15T05:35:25;49.7;;;31.9;;
67429;SDS011;54298;52.076;5.264;2023-02-15T05:37:02;49.5;;;30.9;;
67429;SDS011;54298;52.076;5.264;2023-02-15T05:40:15;55.9;;;35.71;;
67429;SDS011;54298;52.076;5.264;2023-02-15T05:41:51;45.8;;;29.4;;
67429;SDS011;54298;52.076;5.264;2023-02-15T05:43:27;55.0;;;31.6;;
67429;SDS011;54298;52.076;5.264;2023-02-15T05:45:06;59.2;;;35.1;;
67429;SDS011;54298;52.076;5.264;2023-02-15T05:48:19;56.2;;;35.5;;
67429;SDS011;54298;52.076;5.264;2023-02-15T05:49:58;49.3;;;31.2;;
67429;SDS011;54298;52.076;5.264;2023-02-15T05:51:34;58.2;;;32.8;;
67429;SDS011;54298;52.076;5.264;2023-02-15T05:54:46;65.8;;;37.0;;
67429;SDS011;54298;52.076;5.264;2023-02-15T05:56:22;58.1;;;35.31;;
67429;SDS011;54298;52.076;5.264;2023-02-15T05:57:59;61.9;;;37.31;;
67429;SDS011;54298;52.076;5.264;2023-02-15T06:01:12;56.6;;;32.9;;
67429;SDS011;54298;52.076;5.264;2023-02-15T06:02:50;56.0;;;34.6;;
67429;SDS011;54298;52.076;5.264;2023-02-15T06:04:26;57.5;;;32.8;;
67429;SDS011;54298;52.076;5.264;2023-02-15T06:06:04;58.7;;;37.21;;
67429;SDS011;54298;52.076;5.264;2023-02-15T06:09:19;50.6;;;35.71;;
67429;SDS011;54298;52.076;5.264;2023-02-15T06:10:56;54.1;;;33.0;;
67429;SDS011;54298;52.076;5.264;2023-02-15T06:12:32;53.8;;;33.1;;
67429;SDS011;54298;52.076;5.264;2023-02-15T06:15:44;53.5;;;32.5;;
67429;SDS011;54298;52.076;5.264;2023-02-15T06:17:21;51.6;;;35.31;;
67429;SDS011;54298;52.076;5.264;2023-02-15T06:18:59;48.0;;;29.6;;
67429;SDS011;54298;52.076;5.264;2023-02-15T06:20:35;59.4;;;35.71;;
67429;SDS011;54298;52.076;5.264;2023-02-15T06:23:50;55.0;;;33.5;;
67429;SDS011;54298;52.076;5.264;2023-02-15T06:25:26;60.3;;;36.0;;
67429;SDS011;54298;52.076;5.264;2023-02-15T06:27:02;52.7;;;31.5;;
67429;SDS011;54298;52.076;5.264;2023-02-15T06:30:14;60.3;;;36.9;;
67429;SDS011;54298;52.076;5.264;2023-02-15T06:31:50;53.8;;;32.21;;
67429;SDS011;54298;52.076;5.264;2023-02-15T06:33:27;54.7;;;31.1;;
67429;SDS011;54298;52.076;5.264;2023-02-15T06:36:40;46.6;;;30.8;;
67429;SDS011;54298;52.076;5.264;2023-02-15T06:38:17;51.1;;;33.1;;
67429;SDS011;54298;52.076;5.264;2023-02-15T06:39:53;54.0;;;32.8;;
67429;SDS011;54298;52.076;5.264;2023-02-15T06:41:29;54.8;;;35.0;;
67429;SDS011;54298;52.076;5.264;2023-02-15T06:44:41;64.1;;;38.71;;
67429;SDS011;54298;52.076;5.264;2023-02-15T06:46:18;65.1;;;38.1;;
67429;SDS011;54298;52.076;5.264;2023-02-15T06:47:54;48.7;;;30.3;;
67429;SDS011;54298;52.076;5.264;2023-02-15T06:51:06;53.9;;;33.0;;
67429;SDS011;54298;52.076;5.264;2023-02-15T06:52:42;54.0;;;33.5;;
67429;SDS011;54298;52.076;5.264;2023-02-15T06:54:18;56.7;;;34.4;;
67429;SDS011;54298;52.076;5.264;2023-02-15T06:57:37;53.1;;;33.0;;
67429;SDS011;54298;52.076;5.264;2023-02-15T06:59:13;53.2;;;34.1;;
67429;SDS011;54298;52.076;5.264;2023-02-15T07:00:49;63.8;;;39.71;;
67429;SDS011;54298;52.076;5.264;2023-02-15T07:02:27;52.1;;;33.9;;
67429;SDS011;54298;52.076;5.264;2023-02-15T07:05:39;59.4;;;36.71;;
67429;SDS011;54298;52.076;5.264;2023-02-15T07:07:15;62.5;;;38.21;;
67429;SDS011;54298;52.076;5.264;2023-02-15T07:08:52;46.2;;;29.6;;
67429;SDS011;54298;52.076;5.264;2023-02-15T07:13:09;51.8;;;35.4;;
67429;SDS011;54298;52.076;5.264;2023-02-15T07:14:45;64.8;;;39.6;;
67429;SDS011;54298;52.076;5.264;2023-02-15T07:16:21;62.8;;;37.81;;
67429;SDS011;54298;52.076;5.264;2023-02-15T07:17:58;64.91;;;38.0;;
67429;SDS011;54298;52.076;5.264;2023-02-15T07:19:33;63.1;;;37.71;;
67429;SDS011;54298;52.076;5.264;2023-02-15T07:22:46;63.0;;;37.71;;
67429;SDS011;54298;52.076;5.264;2023-02-15T07:24:23;55.6;;;35.71;;
67429;SDS011;54298;52.076;5.264;2023-02-15T07:25:59;51.5;;;32.6;;
67429;SDS011;54298;52.076;5.264;2023-02-15T07:27:36;53.5;;;32.9;;
67429;SDS011;54298;52.076;5.264;2023-02-15T07:30:49;70.5;;;43.3;;
67429;SDS011;54298;52.076;5.264;2023-02-15T07:32:27;55.6;;;34.9;;
67429;SDS011;54298;52.076;5.264;2023-02-15T07:34:05;53.1;;;32.1;;
67429;SDS011;54298;52.076;5.264;2023-02-15T07:37:23;46.9;;;30.7;;
67429;SDS011;54298;52.076;5.264;2023-02-15T07:39:00;61.1;;;39.5;;
67429;SDS011;54298;52.076;5.264;2023-02-15T07:40:36;64.41;;;35.81;;
67429;SDS011;54298;52.076;5.264;2023-02-15T07:42:13;58.6;;;35.5;;
67429;SDS011;54298;52.076;5.264;2023-02-15T07:45:25;61.3;;;37.0;;
67429;SDS011;54298;52.076;5.264;2023-02-15T07:47:01;53.9;;;32.71;;
67429;SDS011;54298;52.076;5.264;2023-02-15T07:48:38;60.4;;;36.71;;
67429;SDS011;54298;52.076;5.264;2023-02-15T07:51:52;55.9;;;38.6;;
67429;SDS011;54298;52.076;5.264;2023-02-15T07:53:29;59.1;;;38.1;;
67429;SDS011;54298;52.076;5.264;2023-02-15T07:55:06;65.5;;;39.21;;
67429;SDS011;54298;52.076;5.264;2023-02-15T07:58:19;55.4;;;35.81;;
67429;SDS011;54298;52.076;5.264;2023-02-15T07:59:56;58.9;;;40.31;;
67429;SDS011;54298;52.076;5.264;2023-02-15T08:01:33;59.0;;;38.1;;
67429;SDS011;54298;52.076;5.264;2023-02-15T08:03:14;77.2;;;47.9;;
67429;SDS011;54298;52.076;5.264;2023-02-15T08:06:27;59.4;;;41.1;;
67429;SDS011;54298;52.076;5.264;2023-02-15T08:08:06;59.6;;;37.31;;
67429;SDS011;54298;52.076;5.264;2023-02-15T08:09:43;68.1;;;40.21;;
67429;SDS011;54298;52.076;5.264;2023-02-15T08:13:07;56.9;;;35.5;;
67429;SDS011;54298;52.076;5.264;2023-02-15T08:14:43;65.1;;;41.6;;
67429;SDS011;54298;52.076;5.264;2023-02-15T08:16:21;69.8;;;43.7;;
67429;SDS011;54298;52.076;5.264;2023-02-15T08:18:00;65.8;;;41.7;;
67429;SDS011;54298;52.076;5.264;2023-02-15T08:21:13;66.8;;;44.2;;
67429;SDS011;54298;52.076;5.264;2023-02-15T08:22:49;63.9;;;41.9;;
67429;SDS011;54298;52.076;5.264;2023-02-15T08:24:26;55.6;;;40.1;;
67429;SDS011;54298;52.076;5.264;2023-02-15T08:27:40;65.5;;;45.4;;
67429;SDS011;54298;52.076;5.264;2023-02-15T08:29:17;56.5;;;36.5;;
67429;SDS011;54298;52.076;5.264;2023-02-15T08:31:03;66.2;;;44.5;;
67429;SDS011;54298;52.076;5.264;2023-02-15T08:32:40;55.6;;;35.21;;
67429;SDS011;54298;52.076;5.264;2023-02-15T08:35:55;60.2;;;41.3;;
67429;SDS011;54298;52.076;5.264;2023-02-15T08:37:31;60.1;;;41.2;;
67429;SDS011;54298;52.076;5.264;2023-02-15T08:39:07;60.7;;;42.4;;
67429;SDS011;54298;52.076;5.264;2023-02-15T08:40:44;53.8;;;35.6;;
67429;SDS011;54298;52.076;5.264;2023-02-15T08:43:58;64.1;;;39.9;;
67429;SDS011;54298;52.076;5.264;2023-02-15T08:45:36;57.6;;;37.71;;
67429;SDS011;54298;52.076;5.264;2023-02-15T08:47:12;62.4;;;39.4;;
67429;SDS011;54298;52.076;5.264;2023-02-15T08:50:25;57.6;;;37.5;;
67429;SDS011;54298;52.076;5.264;2023-02-15T08:52:02;62.0;;;43.8;;
67429;SDS011;54298;52.076;5.264;2023-02-15T08:53:38;59.1;;;39.81;;
67429;SDS011;54298;52.076;5.264;2023-02-15T08:56:52;53.5;;;35.21;;
67429;SDS011;54298;52.076;5.264;2023-02-15T08:58:29;55.4;;;35.71;;
67429;SDS011;54298;52.076;5.264;2023-02-15T09:00:06;59.2;;;38.9;;
67429;SDS011;54298;52.076;5.264;2023-02-15T09:01:43;59.0;;;38.9;;
67429;SDS011;54298;52.076;5.264;2023-02-15T09:04:56;59.0;;;42.1;;
67429;SDS011;54298;52.076;5.264;2023-02-15T09:06:32;54.4;;;36.1;;
67429;SDS011;54298;52.076;5.264;2023-02-15T09:08:08;55.2;;;37.71;;
67429;SDS011;54298;52.076;5.264;2023-02-15T09:11:23;61.5;;;42.9;;
67429;SDS011;54298;52.076;5.264;2023-02-15T09:13:01;57.0;;;40.4;;
67429;SDS011;54298;52.076;5.264;2023-02-15T09:14:37;57.7;;;42.4;;
67429;SDS011;54298;52.076;5.264;2023-02-15T09:17:53;52.1;;;40.81;;
67429;SDS011;54298;52.076;5.264;2023-02-15T09:19:29;58.8;;;42.8;;
67429;SDS011;54298;52.076;5.264;2023-02-15T09:21:07;59.3;;;43.8;;
67429;SDS011;54298;52.076;5.264;2023-02-15T09:22:44;61.0;;;44.7;;
67429;SDS011;54298;52.076;5.264;2023-02-15T09:26:01;57.3;;;39.21;;
67429;SDS011;54298;52.076;5.264;2023-02-15T09:27:39;60.8;;;44.7;;
67429;SDS011;54298;52.076;5.264;2023-02-15T09:29:15;53.2;;;37.71;;
67429;SDS011;54298;52.076;5.264;2023-02-15T09:32:29;58.4;;;43.1;;
67429;SDS011;54298;52.076;5.264;2023-02-15T09:34:05;56.5;;;43.8;;
67429;SDS011;54298;52.076;5.264;2023-02-15T09:35:41;52.8;;;38.0;;
67429;SDS011;54298;52.076;5.264;2023-02-15T09:37:18;54.2;;;41.7;;
67429;SDS011;54298;52.076;5.264;2023-02-15T09:40:33;57.9;;;43.6;;
67429;SDS011;54298;52.076;5.264;2023-02-15T09:42:58;61.0;;;42.5;;
67429;SDS011;54298;52.076;5.264;2023-02-15T09:44:57;52.7;;;37.0;;
67429;SDS011;54298;52.076;5.264;2023-02-15T09:47:18;53.4;;;38.5;;
67429;SDS011;54298;52.076;5.264;2023-02-15T09:49:15;54.5;;;38.1;;
67429;SDS011;54298;52.076;5.264;2023-02-15T09:51:08;54.5;;;36.4;;
67429;SDS011;54298;52.076;5.264;2023-02-15T09:53:03;52.6;;;35.31;;
67429;SDS011;54298;52.076;5.264;2023-02-15T09:54:59;54.1;;;40.21;;
67429;SDS011;54298;52.076;5.264;2023-02-15T09:56:51;60.5;;;41.4;;
67429;SDS011;54298;52.076;5.264;2023-02-15T09:58:36;54.0;;;36.9;;
67429;SDS011;54298;52.076;5.264;2023-02-15T10:00:24;57.4;;;41.5;;
67429;SDS011;54298;52.076;5.264;2023-02-15T10:04:11;67.7;;;51.5;;
67429;SDS011;54298;52.076;5.264;2023-02-15T10:06:09;58.2;;;42.3;;
67429;SDS011;54298;52.076;5.264;2023-02-15T10:08:09;59.8;;;41.0;;
67429;SDS011;54298;52.076;5.264;2023-02-15T10:10:28;65.91;;;51.6;;
67429;SDS011;54298;52.076;5.264;2023-02-15T10:12:22;67.1;;;51.1;;
67429;SDS011;54298;52.076;5.264;2023-02-15T10:14:17;65.1;;;48.8;;
67429;SDS011;54298;52.076;5.264;2023-02-15T10:16:12;62.4;;;44.4;;
67429;SDS011;54298;52.076;5.264;2023-02-15T10:18:18;63.7;;;45.1;;
67429;SDS011;54298;52.076;5.264;2023-02-15T10:20:53;60.5;;;45.8;;
67429;SDS011;54298;52.076;5.264;2023-02-15T10:22:38;67.3;;;50.6;;
67429;SDS011;54298;52.076;5.264;2023-02-15T10:24:30;86.8;;;65.2;;
67429;SDS011;54298;52.076;5.264;2023-02-15T10:26:37;59.5;;;46.6;;
67429;SDS011;54298;52.076;5.264;2023-02-15T10:28:20;69.8;;;50.7;;
67429;SDS011;54298;52.076;5.264;2023-02-15T10:30:06;60.7;;;45.8;;
67429;SDS011;54298;52.076;5.264;2023-02-15T10:31:47;64.2;;;48.7;;
67429;SDS011;54298;52.076;5.264;2023-02-15T10:35:16;63.6;;;50.1;;
67429;SDS011;54298;52.076;5.264;2023-02-15T10:37:03;59.6;;;43.3;;
67429;SDS011;54298;52.076;5.264;2023-02-15T10:39:56;62.8;;;45.8;;
67429;SDS011;54298;52.076;5.264;2023-02-15T10:41:44;68.41;;;50.1;;
67429;SDS011;54298;52.076;5.264;2023-02-15T10:43:34;62.9;;;44.4;;
67429;SDS011;54298;52.076;5.264;2023-02-15T10:45:27;59.7;;;45.1;;
67429;SDS011;54298;52.076;5.264;2023-02-15T10:47:16;59.4;;;45.8;;
67429;SDS011;54298;52.076;5.264;2023-02-15T10:49:21;57.2;;;45.3;;
67429;SDS011;54298;52.076;5.264;2023-02-15T10:51:44;59.7;;;45.7;;
67429;SDS011;54298;52.076;5.264;2023-02-15T10:53:39;58.0;;;43.2;;
67429;SDS011;54298;52.076;5.264;2023-02-15T10:56:01;59.8;;;47.4;;
67429;SDS011;54298;52.076;5.264;2023-02-15T10:57:50;62.2;;;48.8;;
67429;SDS011;54298;52.076;5.264;2023-02-15T10:59:49;61.2;;;45.9;;
67429;SDS011;54298;52.076;5.264;2023-02-15T11:01:41;61.4;;;46.4;;
67429;SDS011;54298;52.076;5.264;2023-02-15T11:03:29;63.3;;;46.3;;
67429;SDS011;54298;52.076;5.264;2023-02-15T11:05:24;58.7;;;44.4;;
67429;SDS011;54298;52.076;5.264;2023-02-15T11:07:12;65.6;;;47.6;;
67429;SDS011;54298;52.076;5.264;2023-02-15T11:10:37;60.3;;;46.9;;
67429;SDS011;54298;52.076;5.264;2023-02-15T11:12:19;58.2;;;45.7;;
67429;SDS011;54298;52.076;5.264;2023-02-15T11:14:02;59.5;;;47.9;;
67429;SDS011;54298;52.076;5.264;2023-02-15T11:15:51;58.3;;;44.0;;
67429;SDS011;54298;52.076;5.264;2023-02-15T11:19:15;57.1;;;42.5;;
67429;SDS011;54298;52.076;5.264;2023-02-15T11:20:59;53.9;;;41.4;;
67429;SDS011;54298;52.076;5.264;2023-02-15T11:22:39;55.3;;;42.1;;
67429;SDS011;54298;52.076;5.264;2023-02-15T11:24:19;61.1;;;47.5;;
67429;SDS011;54298;52.076;5.264;2023-02-15T11:27:37;55.0;;;41.5;;
67429;SDS011;54298;52.076;5.264;2023-02-15T11:29:17;56.6;;;44.2;;
67429;SDS011;54298;52.076;5.264;2023-02-15T11:31:02;57.4;;;41.3;;
67429;SDS011;54298;52.076;5.264;2023-02-15T11:32:50;59.0;;;46.7;;
67429;SDS011;54298;52.076;5.264;2023-02-15T11:34:30;58.2;;;44.3;;
67429;SDS011;54298;52.076;5.264;2023-02-15T11:37:54;54.5;;;43.4;;
67429;SDS011;54298;52.076;5.264;2023-02-15T11:39:35;57.6;;;43.8;;
67429;SDS011;54298;52.076;5.264;2023-02-15T11:41:13;61.8;;;47.2;;
67429;SDS011;54298;52.076;5.264;2023-02-15T11:42:55;62.9;;;48.0;;
67429;SDS011;54298;52.076;5.264;2023-02-15T11:46:19;62.1;;;45.3;;
67429;SDS011;54298;52.076;5.264;2023-02-15T11:47:56;58.6;;;44.6;;
67429;SDS011;54298;52.076;5.264;2023-02-15T11:49:35;56.4;;;42.4;;
67429;SDS011;54298;52.076;5.264;2023-02-15T11:51:14;59.0;;;46.6;;
67429;SDS011;54298;52.076;5.264;2023-02-15T11:54:36;56.4;;;39.9;;
67429;SDS011;54298;52.076;5.264;2023-02-15T11:56:18;63.4;;;49.2;;
67429;SDS011;54298;52.076;5.264;2023-02-15T11:57:59;58.0;;;45.3;;
67429;SDS011;54298;52.076;5.264;2023-02-15T11:59:40;53.3;;;40.21;;
67429;SDS011;54298;52.076;5.264;2023-02-15T12:03:09;59.7;;;45.7;;
67429;SDS011;54298;52.076;5.264;2023-02-15T12:04:52;56.5;;;45.2;;
67429;SDS011;54298;52.076;5.264;2023-02-15T12:06:32;59.8;;;43.9;;
67429;SDS011;54298;52.076;5.264;2023-02-15T12:08:15;55.6;;;40.31;;
67429;SDS011;54298;52.076;5.264;2023-02-15T12:09:59;55.6;;;40.31;;
67429;SDS011;54298;52.076;5.264;2023-02-15T12:13:17;58.0;;;45.3;;
67429;SDS011;54298;52.076;5.264;2023-02-15T12:14:56;54.8;;;44.1;;
67429;SDS011;54298;52.076;5.264;2023-02-15T12:16:39;55.4;;;44.2;;
67429;SDS011;54298;52.076;5.264;2023-02-15T12:18:20;53.3;;;42.5;;
67429;SDS011;54298;52.076;5.264;2023-02-15T12:22:03;56.8;;;42.8;;
67429;SDS011;54298;52.076;5.264;2023-02-15T12:23:42;52.6;;;37.71;;
67429;SDS011;54298;52.076;5.264;2023-02-15T12:25:26;57.2;;;41.7;;
67429;SDS011;54298;52.076;5.264;2023-02-15T12:27:13;56.1;;;41.8;;
67429;SDS011;54298;52.076;5.264;2023-02-15T12:28:54;54.2;;;38.81;;
67429;SDS011;54298;52.076;5.264;2023-02-15T12:32:16;58.4;;;44.1;;
67429;SDS011;54298;52.076;5.264;2023-02-15T12:33:55;54.8;;;40.31;;
67429;SDS011;54298;52.076;5.264;2023-02-15T12:35:34;56.1;;;41.5;;
67429;SDS011;54298;52.076;5.264;2023-02-15T12:37:14;56.2;;;40.71;;
67429;SDS011;54298;52.076;5.264;2023-02-15T12:41:03;57.5;;;43.1;;
67429;SDS011;54298;52.076;5.264;2023-02-15T12:42:57;56.1;;;42.9;;
67429;SDS011;54298;52.076;5.264;2023-02-15T12:44:36;56.8;;;41.6;;
67429;SDS011;54298;52.076;5.264;2023-02-15T12:46:13;56.8;;;42.9;;
67429;SDS011;54298;52.076;5.264;2023-02-15T12:48:14;56.2;;;43.6;;
67429;SDS011;54298;52.076;5.264;2023-02-15T12:50:11;55.3;;;42.8;;